sensor_id;sensor_type;location;lat;lon;timestamp;P1;durP1;ratioP1;P2;durP2;ratioP2
8058;SDS011;4072;42.668;23.396;2023-06-22T00:01:22;9.40;;;8.60;;
8058;SDS011;4072;42.668;23.396;2023-06-22T00:03:52;9.77;;;8.77;;
8058;SDS011;4072;42.668;23.396;2023-06-22T00:06:21;10.97;;;9.97;;
8058;SDS011;4072;42.668;23.396;2023-06-22T00:08:50;9.63;;;8.83;;
8058;SDS011;4072;42.668;23.396;2023-06-22T00:11:18;10.70;;;9.60;;
8058;SDS011;4072;42.668;23.396;2023-06-22T00:13:46;10.57;;;9.53;;
8058;SDS011;4072;42.668;23.396;2023-06-22T00:16:15;9.07;;;8.27;;
8058;SDS011;4072;42.668;23.396;2023-06-22T00:18:44;9.07;;;8.27;;
8058;SDS011;4072;42.668;23.396;2023-06-22T00:21:15;8.90;;;8.00;;
8058;SDS011;4072;42.668;23.396;2023-06-22T00:23:43;8.77;;;7.87;;
8058;SDS011;4072;42.668;23.396;2023-06-22T00:26:12;9.17;;;8.33;;
8058;SDS011;4072;42.668;23.396;2023-06-22T00:28:41;9.67;;;8.87;;
8058;SDS011;4072;42.668;23.396;2023-06-22T00:31:09;9.53;;;8.63;;
8058;SDS011;4072;42.668;23.396;2023-06-22T00:33:37;9.57;;;8.67;;
8058;SDS011;4072;42.668;23.396;2023-06-22T00:36:06;9.27;;;8.37;;
8058;SDS011;4072;42.668;23.396;2023-06-22T00:38:36;9.37;;;8.37;;
8058;SDS011;4072;42.668;23.396;2023-06-22T00:41:06;9.63;;;8.70;;
8058;SDS011;4072;42.668;23.396;2023-06-22T00:43:34;9.67;;;8.63;;
8058;SDS011;4072;42.668;23.396;2023-06-22T00:46:03;8.63;;;7.80;;
8058;SDS011;4072;42.668;23.396;2023-06-22T00:48:32;9.27;;;8.47;;
8058;SDS011;4072;42.668;23.396;2023-06-22T00:51:00;9.80;;;8.90;;
8058;SDS011;4072;42.668;23.396;2023-06-22T00:53:29;9.77;;;8.87;;
8058;SDS011;4072;42.668;23.396;2023-06-22T00:56:03;12.13;;;8.70;;
8058;SDS011;4072;42.668;23.396;2023-06-22T00:58:33;9.90;;;8.90;;
8058;SDS011;4072;42.668;23.396;2023-06-22T01:01:02;9.40;;;8.50;;
8058;SDS011;4072;42.668;23.396;2023-06-22T01:03:31;10.77;;;9.03;;
8058;SDS011;4072;42.668;23.396;2023-06-22T01:06:01;11.43;;;9.07;;
8058;SDS011;4072;42.668;23.396;2023-06-22T01:08:37;10.17;;;9.33;;
8058;SDS011;4072;42.668;23.396;2023-06-22T01:11:12;10.20;;;9.30;;
8058;SDS011;4072;42.668;23.396;2023-06-22T01:13:48;10.30;;;9.40;;
8058;SDS011;4072;42.668;23.396;2023-06-22T01:16:23;9.40;;;8.53;;
8058;SDS011;4072;42.668;23.396;2023-06-22T01:18:57;9.10;;;8.30;;
8058;SDS011;4072;42.668;23.396;2023-06-22T01:21:33;10.80;;;9.70;;
8058;SDS011;4072;42.668;23.396;2023-06-22T01:24:07;9.53;;;8.73;;
8058;SDS011;4072;42.668;23.396;2023-06-22T01:26:48;11.43;;;10.23;;
8058;SDS011;4072;42.668;23.396;2023-06-22T01:29:27;9.37;;;8.57;;
8058;SDS011;4072;42.668;23.396;2023-06-22T01:31:56;11.13;;;9.07;;
8058;SDS011;4072;42.668;23.396;2023-06-22T01:34:26;10.40;;;9.43;;
8058;SDS011;4072;42.668;23.396;2023-06-22T01:36:56;10.00;;;9.00;;
8058;SDS011;4072;42.668;23.396;2023-06-22T01:39:26;11.80;;;9.83;;
8058;SDS011;4072;42.668;23.396;2023-06-22T01:41:55;12.23;;;11.13;;
8058;SDS011;4072;42.668;23.396;2023-06-22T01:44:24;12.73;;;10.17;;
8058;SDS011;4072;42.668;23.396;2023-06-22T01:46:55;9.93;;;9.13;;
8058;SDS011;4072;42.668;23.396;2023-06-22T01:49:23;11.43;;;10.33;;
8058;SDS011;4072;42.668;23.396;2023-06-22T01:51:51;10.67;;;9.77;;
8058;SDS011;4072;42.668;23.396;2023-06-22T01:54:20;11.27;;;10.17;;
8058;SDS011;4072;42.668;23.396;2023-06-22T01:56:49;11.37;;;9.77;;
8058;SDS011;4072;42.668;23.396;2023-06-22T01:59:17;11.27;;;10.17;;
8058;SDS011;4072;42.668;23.396;2023-06-22T02:01:57;11.20;;;10.00;;
8058;SDS011;4072;42.668;23.396;2023-06-22T02:04:31;12.43;;;11.23;;
8058;SDS011;4072;42.668;23.396;2023-06-22T02:07:05;11.53;;;10.43;;
8058;SDS011;4072;42.668;23.396;2023-06-22T02:09:42;11.43;;;10.23;;
8058;SDS011;4072;42.668;23.396;2023-06-22T02:12:16;12.17;;;11.00;;
8058;SDS011;4072;42.668;23.396;2023-06-22T02:14:45;14.43;;;11.67;;
8058;SDS011;4072;42.668;23.396;2023-06-22T02:17:18;12.17;;;10.87;;
8058;SDS011;4072;42.668;23.396;2023-06-22T02:19:46;11.77;;;10.67;;
8058;SDS011;4072;42.668;23.396;2023-06-22T02:22:15;12.33;;;11.00;;
8058;SDS011;4072;42.668;23.396;2023-06-22T02:24:44;12.90;;;11.37;;
8058;SDS011;4072;42.668;23.396;2023-06-22T02:27:12;11.97;;;10.77;;
8058;SDS011;4072;42.668;23.396;2023-06-22T02:29:40;12.93;;;11.17;;
8058;SDS011;4072;42.668;23.396;2023-06-22T02:32:08;13.23;;;11.87;;
8058;SDS011;4072;42.668;23.396;2023-06-22T02:34:38;13.67;;;11.70;;
8058;SDS011;4072;42.668;23.396;2023-06-22T02:37:06;14.20;;;11.40;;
8058;SDS011;4072;42.668;23.396;2023-06-22T02:39:34;13.77;;;11.07;;
8058;SDS011;4072;42.668;23.396;2023-06-22T02:42:04;11.97;;;10.90;;
8058;SDS011;4072;42.668;23.396;2023-06-22T02:44:33;12.63;;;10.77;;
8058;SDS011;4072;42.668;23.396;2023-06-22T02:47:01;10.30;;;9.40;;
8058;SDS011;4072;42.668;23.396;2023-06-22T02:49:30;10.83;;;9.90;;
8058;SDS011;4072;42.668;23.396;2023-06-22T02:51:59;12.43;;;9.90;;
8058;SDS011;4072;42.668;23.396;2023-06-22T02:54:27;16.33;;;9.87;;
8058;SDS011;4072;42.668;23.396;2023-06-22T02:56:55;10.37;;;9.23;;
8058;SDS011;4072;42.668;23.396;2023-06-22T02:59:24;10.70;;;9.63;;
8058;SDS011;4072;42.668;23.396;2023-06-22T03:01:52;11.27;;;10.17;;
8058;SDS011;4072;42.668;23.396;2023-06-22T03:04:20;11.73;;;10.57;;
8058;SDS011;4072;42.668;23.396;2023-06-22T03:06:49;10.37;;;9.47;;
8058;SDS011;4072;42.668;23.396;2023-06-22T03:09:19;10.87;;;9.77;;
8058;SDS011;4072;42.668;23.396;2023-06-22T03:11:48;10.27;;;9.33;;
8058;SDS011;4072;42.668;23.396;2023-06-22T03:14:16;10.50;;;9.43;;
8058;SDS011;4072;42.668;23.396;2023-06-22T03:16:45;11.10;;;10.10;;
8058;SDS011;4072;42.668;23.396;2023-06-22T03:19:14;11.17;;;10.10;;
8058;SDS011;4072;42.668;23.396;2023-06-22T03:21:43;10.83;;;9.93;;
8058;SDS011;4072;42.668;23.396;2023-06-22T03:24:11;11.27;;;10.13;;
8058;SDS011;4072;42.668;23.396;2023-06-22T03:26:41;11.43;;;10.17;;
8058;SDS011;4072;42.668;23.396;2023-06-22T03:29:09;11.53;;;9.80;;
8058;SDS011;4072;42.668;23.396;2023-06-22T03:31:37;13.50;;;12.27;;
8058;SDS011;4072;42.668;23.396;2023-06-22T03:34:05;12.17;;;10.53;;
8058;SDS011;4072;42.668;23.396;2023-06-22T03:36:34;11.70;;;10.43;;
8058;SDS011;4072;42.668;23.396;2023-06-22T03:39:02;11.60;;;10.40;;
8058;SDS011;4072;42.668;23.396;2023-06-22T03:41:30;12.03;;;9.90;;
8058;SDS011;4072;42.668;23.396;2023-06-22T03:44:00;10.27;;;9.20;;
8058;SDS011;4072;42.668;23.396;2023-06-22T03:46:29;13.93;;;12.63;;
8058;SDS011;4072;42.668;23.396;2023-06-22T03:48:57;17.87;;;16.07;;
8058;SDS011;4072;42.668;23.396;2023-06-22T03:51:25;19.87;;;17.87;;
8058;SDS011;4072;42.668;23.396;2023-06-22T03:53:54;21.13;;;19.13;;
8058;SDS011;4072;42.668;23.396;2023-06-22T03:56:23;20.83;;;16.83;;
8058;SDS011;4072;42.668;23.396;2023-06-22T03:58:51;16.60;;;15.00;;
8058;SDS011;4072;42.668;23.396;2023-06-22T04:01:21;17.40;;;15.70;;
8058;SDS011;4072;42.668;23.396;2023-06-22T04:03:49;15.47;;;13.87;;
8058;SDS011;4072;42.668;23.396;2023-06-22T04:06:17;13.50;;;12.20;;
8058;SDS011;4072;42.668;23.396;2023-06-22T04:08:45;18.00;;;13.70;;
8058;SDS011;4072;42.668;23.396;2023-06-22T04:11:17;13.63;;;11.90;;
8058;SDS011;4072;42.668;23.396;2023-06-22T04:13:45;12.97;;;11.77;;
8058;SDS011;4072;42.668;23.396;2023-06-22T04:16:15;20.07;;;13.70;;
8058;SDS011;4072;42.668;23.396;2023-06-22T04:18:45;16.10;;;14.40;;
8058;SDS011;4072;42.668;23.396;2023-06-22T04:21:13;16.60;;;15.10;;
8058;SDS011;4072;42.668;23.396;2023-06-22T04:23:41;22.03;;;17.43;;
8058;SDS011;4072;42.668;23.396;2023-06-22T04:26:10;15.83;;;14.20;;
8058;SDS011;4072;42.668;23.396;2023-06-22T04:28:39;17.13;;;13.53;;
8058;SDS011;4072;42.668;23.396;2023-06-22T04:31:07;15.83;;;14.23;;
8058;SDS011;4072;42.668;23.396;2023-06-22T04:33:35;16.70;;;12.97;;
8058;SDS011;4072;42.668;23.396;2023-06-22T04:36:08;13.17;;;11.83;;
8058;SDS011;4072;42.668;23.396;2023-06-22T04:38:39;15.43;;;10.90;;
8058;SDS011;4072;42.668;23.396;2023-06-22T04:41:08;14.63;;;10.17;;
8058;SDS011;4072;42.668;23.396;2023-06-22T04:43:40;10.07;;;9.17;;
8058;SDS011;4072;42.668;23.396;2023-06-22T04:46:08;10.43;;;9.33;;
8058;SDS011;4072;42.668;23.396;2023-06-22T04:48:37;10.10;;;9.07;;
8058;SDS011;4072;42.668;23.396;2023-06-22T04:51:05;10.43;;;9.43;;
8058;SDS011;4072;42.668;23.396;2023-06-22T04:53:36;11.88;;;10.68;;
8058;SDS011;4072;42.668;23.396;2023-06-22T04:56:04;11.18;;;10.10;;
8058;SDS011;4072;42.668;23.396;2023-06-22T04:58:32;10.68;;;9.57;;
8058;SDS011;4072;42.668;23.396;2023-06-22T05:01:00;13.10;;;11.55;;
8058;SDS011;4072;42.668;23.396;2023-06-22T05:03:30;13.88;;;12.57;;
8058;SDS011;4072;42.668;23.396;2023-06-22T05:05:58;13.98;;;12.48;;
8058;SDS011;4072;42.668;23.396;2023-06-22T05:08:27;15.27;;;13.65;;
8058;SDS011;4072;42.668;23.396;2023-06-22T05:11:03;15.38;;;13.88;;
8058;SDS011;4072;42.668;23.396;2023-06-22T05:13:31;15.73;;;13.25;;
8058;SDS011;4072;42.668;23.396;2023-06-22T05:16:01;19.30;;;13.00;;
8058;SDS011;4072;42.668;23.396;2023-06-22T05:18:32;15.95;;;13.20;;
8058;SDS011;4072;42.668;23.396;2023-06-22T05:21:01;16.48;;;12.88;;
8058;SDS011;4072;42.668;23.396;2023-06-22T05:23:31;15.57;;;12.45;;
8058;SDS011;4072;42.668;23.396;2023-06-22T05:26:00;15.82;;;11.88;;
8058;SDS011;4072;42.668;23.396;2023-06-22T05:28:30;15.57;;;13.68;;
8058;SDS011;4072;42.668;23.396;2023-06-22T05:31:00;15.40;;;13.77;;
8058;SDS011;4072;42.668;23.396;2023-06-22T05:33:28;14.13;;;12.65;;
8058;SDS011;4072;42.668;23.396;2023-06-22T05:35:57;15.20;;;12.63;;
8058;SDS011;4072;42.668;23.396;2023-06-22T05:38:25;13.45;;;12.23;;
8058;SDS011;4072;42.668;23.396;2023-06-22T05:40:54;14.32;;;12.70;;
8058;SDS011;4072;42.668;23.396;2023-06-22T05:43:22;12.88;;;11.70;;
8058;SDS011;4072;42.668;23.396;2023-06-22T05:45:53;14.80;;;12.13;;
8058;SDS011;4072;42.668;23.396;2023-06-22T05:48:21;13.43;;;12.13;;
8058;SDS011;4072;42.668;23.396;2023-06-22T05:50:51;13.98;;;11.80;;
8058;SDS011;4072;42.668;23.396;2023-06-22T05:53:19;14.15;;;12.82;;
8058;SDS011;4072;42.668;23.396;2023-06-22T05:55:47;14.98;;;12.23;;
8058;SDS011;4072;42.668;23.396;2023-06-22T05:58:16;15.63;;;12.27;;
8058;SDS011;4072;42.668;23.396;2023-06-22T06:00:44;13.90;;;12.60;;
8058;SDS011;4072;42.668;23.396;2023-06-22T06:03:16;14.48;;;12.95;;
8058;SDS011;4072;42.668;23.396;2023-06-22T06:05:45;13.32;;;12.00;;
8058;SDS011;4072;42.668;23.396;2023-06-22T06:08:13;14.20;;;12.90;;
8058;SDS011;4072;42.668;23.396;2023-06-22T06:10:41;17.65;;;14.02;;
8058;SDS011;4072;42.668;23.396;2023-06-22T06:13:13;13.05;;;11.75;;
8058;SDS011;4072;42.668;23.396;2023-06-22T06:15:41;15.48;;;13.88;;
8058;SDS011;4072;42.668;23.396;2023-06-22T06:18:09;14.43;;;12.93;;
8058;SDS011;4072;42.668;23.396;2023-06-22T06:20:39;16.42;;;13.90;;
8058;SDS011;4072;42.668;23.396;2023-06-22T06:23:08;16.33;;;14.82;;
8058;SDS011;4072;42.668;23.396;2023-06-22T06:25:36;14.88;;;13.27;;
8058;SDS011;4072;42.668;23.396;2023-06-22T06:28:04;19.38;;;13.85;;
8058;SDS011;4072;42.668;23.396;2023-06-22T06:30:33;15.02;;;13.38;;
8058;SDS011;4072;42.668;23.396;2023-06-22T06:33:01;15.18;;;13.73;;
8058;SDS011;4072;42.668;23.396;2023-06-22T06:35:33;14.95;;;13.45;;
8058;SDS011;4072;42.668;23.396;2023-06-22T06:38:02;14.68;;;13.27;;
8058;SDS011;4072;42.668;23.396;2023-06-22T06:40:30;18.00;;;13.52;;
8058;SDS011;4072;42.668;23.396;2023-06-22T06:43:00;14.77;;;12.80;;
8058;SDS011;4072;42.668;23.396;2023-06-22T06:45:28;13.70;;;12.25;;
8058;SDS011;4072;42.668;23.396;2023-06-22T06:47:59;14.07;;;12.63;;
8058;SDS011;4072;42.668;23.396;2023-06-22T06:50:28;16.88;;;11.98;;
8058;SDS011;4072;42.668;23.396;2023-06-22T06:52:57;13.40;;;12.20;;
8058;SDS011;4072;42.668;23.396;2023-06-22T06:55:27;12.13;;;11.07;;
8058;SDS011;4072;42.668;23.396;2023-06-22T06:57:59;17.23;;;11.73;;
8058;SDS011;4072;42.668;23.396;2023-06-22T07:00:27;12.85;;;11.65;;
8058;SDS011;4072;42.668;23.396;2023-06-22T07:02:56;11.77;;;10.85;;
8058;SDS011;4072;42.668;23.396;2023-06-22T07:05:24;12.70;;;11.40;;
8058;SDS011;4072;42.668;23.396;2023-06-22T07:07:53;13.00;;;11.70;;
8058;SDS011;4072;42.668;23.396;2023-06-22T07:10:21;12.50;;;11.30;;
8058;SDS011;4072;42.668;23.396;2023-06-22T07:12:50;13.90;;;11.13;;
8058;SDS011;4072;42.668;23.396;2023-06-22T07:15:19;13.23;;;11.63;;
8058;SDS011;4072;42.668;23.396;2023-06-22T07:17:47;15.30;;;12.52;;
8058;SDS011;4072;42.668;23.396;2023-06-22T07:20:15;13.93;;;11.98;;
8058;SDS011;4072;42.668;23.396;2023-06-22T07:22:46;12.70;;;11.48;;
8058;SDS011;4072;42.668;23.396;2023-06-22T07:25:14;12.02;;;10.05;;
8058;SDS011;4072;42.668;23.396;2023-06-22T07:27:44;12.75;;;10.35;;
8058;SDS011;4072;42.668;23.396;2023-06-22T07:30:15;11.18;;;10.18;;
8058;SDS011;4072;42.668;23.396;2023-06-22T07:32:44;11.68;;;10.48;;
8058;SDS011;4072;42.668;23.396;2023-06-22T07:35:13;13.48;;;10.95;;
8058;SDS011;4072;42.668;23.396;2023-06-22T07:37:42;13.60;;;11.30;;
8058;SDS011;4072;42.668;23.396;2023-06-22T07:40:11;11.50;;;10.48;;
8058;SDS011;4072;42.668;23.396;2023-06-22T07:42:40;10.63;;;9.63;;
8058;SDS011;4072;42.668;23.396;2023-06-22T07:45:09;12.15;;;10.35;;
8058;SDS011;4072;42.668;23.396;2023-06-22T07:47:39;10.55;;;9.45;;
8058;SDS011;4072;42.668;23.396;2023-06-22T07:50:09;11.30;;;10.38;;
8058;SDS011;4072;42.668;23.396;2023-06-22T07:52:38;9.35;;;8.55;;
8058;SDS011;4072;42.668;23.396;2023-06-22T07:55:09;10.15;;;9.25;;
8058;SDS011;4072;42.668;23.396;2023-06-22T07:57:37;10.52;;;9.52;;
8058;SDS011;4072;42.668;23.396;2023-06-22T08:00:08;11.68;;;10.65;;
8058;SDS011;4072;42.668;23.396;2023-06-22T08:02:44;11.20;;;9.70;;
8058;SDS011;4072;42.668;23.396;2023-06-22T08:05:14;11.18;;;10.10;;
8058;SDS011;4072;42.668;23.396;2023-06-22T08:07:48;11.73;;;10.52;;
8058;SDS011;4072;42.668;23.396;2023-06-22T08:10:17;11.10;;;10.00;;
8058;SDS011;4072;42.668;23.396;2023-06-22T08:12:46;11.48;;;10.15;;
8058;SDS011;4072;42.668;23.396;2023-06-22T08:15:14;12.50;;;10.40;;
8058;SDS011;4072;42.668;23.396;2023-06-22T08:17:44;11.52;;;10.25;;
8058;SDS011;4072;42.668;23.396;2023-06-22T08:20:12;11.55;;;10.48;;
8058;SDS011;4072;42.668;23.396;2023-06-22T08:22:42;14.35;;;10.40;;
8058;SDS011;4072;42.668;23.396;2023-06-22T08:25:11;17.33;;;10.32;;
8058;SDS011;4072;42.668;23.396;2023-06-22T08:27:44;11.43;;;10.30;;
8058;SDS011;4072;42.668;23.396;2023-06-22T08:30:13;12.32;;;11.18;;
8058;SDS011;4072;42.668;23.396;2023-06-22T08:32:44;11.50;;;9.77;;
8058;SDS011;4072;42.668;23.396;2023-06-22T08:35:12;12.00;;;10.40;;
8058;SDS011;4072;42.668;23.396;2023-06-22T08:37:40;12.10;;;10.95;;
8058;SDS011;4072;42.668;23.396;2023-06-22T08:40:09;12.15;;;10.95;;
8058;SDS011;4072;42.668;23.396;2023-06-22T08:42:39;11.32;;;10.27;;
8058;SDS011;4072;42.668;23.396;2023-06-22T08:45:09;11.38;;;10.00;;
8058;SDS011;4072;42.668;23.396;2023-06-22T08:47:38;13.40;;;11.80;;
8058;SDS011;4072;42.668;23.396;2023-06-22T08:50:10;12.05;;;10.77;;
8058;SDS011;4072;42.668;23.396;2023-06-22T08:52:39;12.57;;;11.27;;
8058;SDS011;4072;42.668;23.396;2023-06-22T08:55:09;15.05;;;10.52;;
8058;SDS011;4072;42.668;23.396;2023-06-22T08:57:37;13.45;;;11.57;;
8058;SDS011;4072;42.668;23.396;2023-06-22T09:00:07;12.68;;;10.18;;
8058;SDS011;4072;42.668;23.396;2023-06-22T09:02:48;14.30;;;10.98;;
8058;SDS011;4072;42.668;23.396;2023-06-22T09:05:18;15.85;;;11.63;;
8058;SDS011;4072;42.668;23.396;2023-06-22T09:07:48;13.10;;;11.80;;
8058;SDS011;4072;42.668;23.396;2023-06-22T09:10:16;13.20;;;11.13;;
8058;SDS011;4072;42.668;23.396;2023-06-22T09:12:45;13.68;;;12.38;;
8058;SDS011;4072;42.668;23.396;2023-06-22T09:15:14;12.10;;;10.90;;
8058;SDS011;4072;42.668;23.396;2023-06-22T09:17:44;11.68;;;10.57;;
8058;SDS011;4072;42.668;23.396;2023-06-22T09:20:13;13.07;;;11.77;;
8058;SDS011;4072;42.668;23.396;2023-06-22T09:22:44;11.93;;;10.75;;
8058;SDS011;4072;42.668;23.396;2023-06-22T09:25:12;13.27;;;11.98;;
8058;SDS011;4072;42.668;23.396;2023-06-22T09:27:40;14.10;;;10.90;;
8058;SDS011;4072;42.668;23.396;2023-06-22T09:30:09;11.43;;;10.27;;
8058;SDS011;4072;42.668;23.396;2023-06-22T09:32:37;10.77;;;9.77;;
8058;SDS011;4072;42.668;23.396;2023-06-22T09:35:06;15.65;;;10.50;;
8058;SDS011;4072;42.668;23.396;2023-06-22T09:37:36;10.55;;;9.55;;
8058;SDS011;4072;42.668;23.396;2023-06-22T09:40:07;11.13;;;10.13;;
8058;SDS011;4072;42.668;23.396;2023-06-22T09:42:38;10.73;;;9.70;;
8058;SDS011;4072;42.668;23.396;2023-06-22T09:45:07;11.27;;;10.18;;
8058;SDS011;4072;42.668;23.396;2023-06-22T09:47:36;10.85;;;9.93;;
8058;SDS011;4072;42.668;23.396;2023-06-22T09:50:05;10.80;;;9.75;;
8058;SDS011;4072;42.668;23.396;2023-06-22T09:52:34;12.88;;;11.52;;
8058;SDS011;4072;42.668;23.396;2023-06-22T09:55:07;11.43;;;10.38;;
8058;SDS011;4072;42.668;23.396;2023-06-22T09:57:36;11.38;;;10.27;;
8058;SDS011;4072;42.668;23.396;2023-06-22T10:00:05;10.30;;;9.25;;
8058;SDS011;4072;42.668;23.396;2023-06-22T10:02:38;12.63;;;9.48;;
8058;SDS011;4072;42.668;23.396;2023-06-22T10:05:07;10.00;;;9.00;;
8058;SDS011;4072;42.668;23.396;2023-06-22T10:07:37;9.52;;;8.73;;
8058;SDS011;4072;42.668;23.396;2023-06-22T10:10:11;9.77;;;8.60;;
8058;SDS011;4072;42.668;23.396;2023-06-22T10:12:44;11.23;;;10.15;;
8058;SDS011;4072;42.668;23.396;2023-06-22T10:15:14;10.93;;;8.95;;
8058;SDS011;4072;42.668;23.396;2023-06-22T10:17:43;9.80;;;8.90;;
8058;SDS011;4072;42.668;23.396;2023-06-22T10:20:13;9.52;;;8.35;;
8058;SDS011;4072;42.668;23.396;2023-06-22T10:22:42;8.45;;;7.75;;
8058;SDS011;4072;42.668;23.396;2023-06-22T10:25:14;10.77;;;9.75;;
8058;SDS011;4072;42.668;23.396;2023-06-22T10:27:42;9.57;;;8.70;;
8058;SDS011;4072;42.668;23.396;2023-06-22T10:30:11;8.98;;;8.13;;
8058;SDS011;4072;42.668;23.396;2023-06-22T10:32:40;9.43;;;8.63;;
8058;SDS011;4072;42.668;23.396;2023-06-22T10:35:09;9.18;;;8.07;;
8058;SDS011;4072;42.668;23.396;2023-06-22T10:37:40;9.38;;;8.60;;
8058;SDS011;4072;42.668;23.396;2023-06-22T10:40:10;9.30;;;8.50;;
8058;SDS011;4072;42.668;23.396;2023-06-22T10:42:42;9.98;;;8.95;;
8058;SDS011;4072;42.668;23.396;2023-06-22T10:45:11;9.63;;;8.82;;
8058;SDS011;4072;42.668;23.396;2023-06-22T10:47:40;9.15;;;7.93;;
8058;SDS011;4072;42.668;23.396;2023-06-22T10:50:10;10.10;;;9.10;;
8058;SDS011;4072;42.668;23.396;2023-06-22T10:52:38;8.93;;;8.13;;
8058;SDS011;4072;42.668;23.396;2023-06-22T10:55:08;10.13;;;9.15;;
8058;SDS011;4072;42.668;23.396;2023-06-22T10:57:37;18.80;;;9.82;;
8058;SDS011;4072;42.668;23.396;2023-06-22T11:00:14;9.05;;;8.23;;
8058;SDS011;4072;42.668;23.396;2023-06-22T11:02:44;8.30;;;7.47;;
8058;SDS011;4072;42.668;23.396;2023-06-22T11:05:13;8.82;;;8.13;;
8058;SDS011;4072;42.668;23.396;2023-06-22T11:07:42;8.50;;;7.68;;
8058;SDS011;4072;42.668;23.396;2023-06-22T11:10:12;10.13;;;7.93;;
8058;SDS011;4072;42.668;23.396;2023-06-22T11:12:42;9.73;;;8.13;;
8058;SDS011;4072;42.668;23.396;2023-06-22T11:15:12;9.35;;;8.45;;
8058;SDS011;4072;42.668;23.396;2023-06-22T11:17:41;8.93;;;8.23;;
8058;SDS011;4072;42.668;23.396;2023-06-22T11:20:10;7.82;;;7.22;;
8058;SDS011;4072;42.668;23.396;2023-06-22T11:22:39;8.73;;;7.97;;
8058;SDS011;4072;42.668;23.396;2023-06-22T11:25:08;8.45;;;7.75;;
8058;SDS011;4072;42.668;23.396;2023-06-22T11:27:38;7.97;;;7.28;;
8058;SDS011;4072;42.668;23.396;2023-06-22T11:30:08;8.35;;;7.53;;
8058;SDS011;4072;42.668;23.396;2023-06-22T11:32:38;7.95;;;7.32;;
8058;SDS011;4072;42.668;23.396;2023-06-22T11:35:06;8.20;;;7.47;;
8058;SDS011;4072;42.668;23.396;2023-06-22T11:37:35;8.30;;;7.50;;
8058;SDS011;4072;42.668;23.396;2023-06-22T11:40:05;8.18;;;7.40;;
8058;SDS011;4072;42.668;23.396;2023-06-22T11:42:35;8.20;;;7.40;;
8058;SDS011;4072;42.668;23.396;2023-06-22T11:45:06;9.52;;;8.68;;
8058;SDS011;4072;42.668;23.396;2023-06-22T11:47:35;8.40;;;7.70;;
8058;SDS011;4072;42.668;23.396;2023-06-22T11:50:09;8.95;;;8.18;;
8058;SDS011;4072;42.668;23.396;2023-06-22T11:52:38;8.27;;;7.57;;
8058;SDS011;4072;42.668;23.396;2023-06-22T11:55:08;8.32;;;7.63;;
8058;SDS011;4072;42.668;23.396;2023-06-22T11:57:37;7.82;;;7.22;;
8058;SDS011;4072;42.668;23.396;2023-06-22T12:00:07;8.85;;;7.57;;
8058;SDS011;4072;42.668;23.396;2023-06-22T12:02:43;7.65;;;7.05;;
8058;SDS011;4072;42.668;23.396;2023-06-22T12:05:14;8.32;;;7.68;;
8058;SDS011;4072;42.668;23.396;2023-06-22T12:07:43;9.63;;;8.73;;
8058;SDS011;4072;42.668;23.396;2023-06-22T12:10:11;8.55;;;7.72;;
8058;SDS011;4072;42.668;23.396;2023-06-22T12:12:41;8.90;;;7.35;;
8058;SDS011;4072;42.668;23.396;2023-06-22T12:15:10;14.90;;;9.50;;
8058;SDS011;4072;42.668;23.396;2023-06-22T12:17:38;9.73;;;8.80;;
8058;SDS011;4072;42.668;23.396;2023-06-22T12:20:09;9.35;;;7.90;;
8058;SDS011;4072;42.668;23.396;2023-06-22T12:22:40;9.40;;;8.50;;
8058;SDS011;4072;42.668;23.396;2023-06-22T12:25:08;8.48;;;7.60;;
8058;SDS011;4072;42.668;23.396;2023-06-22T12:27:37;8.93;;;8.10;;
8058;SDS011;4072;42.668;23.396;2023-06-22T12:30:06;8.70;;;7.85;;
8058;SDS011;4072;42.668;23.396;2023-06-22T12:32:36;9.13;;;8.13;;
8058;SDS011;4072;42.668;23.396;2023-06-22T12:35:05;11.43;;;8.50;;
8058;SDS011;4072;42.668;23.396;2023-06-22T12:37:39;10.70;;;9.20;;
8058;SDS011;4072;42.668;23.396;2023-06-22T12:40:09;12.63;;;10.13;;
8058;SDS011;4072;42.668;23.396;2023-06-22T12:42:38;17.48;;;11.52;;
8058;SDS011;4072;42.668;23.396;2023-06-22T12:45:07;15.13;;;13.32;;
8058;SDS011;4072;42.668;23.396;2023-06-22T12:47:37;15.55;;;11.88;;
8058;SDS011;4072;42.668;23.396;2023-06-22T12:50:05;14.35;;;11.10;;
8058;SDS011;4072;42.668;23.396;2023-06-22T12:52:36;14.50;;;11.18;;
8058;SDS011;4072;42.668;23.396;2023-06-22T12:55:07;12.38;;;10.43;;
8058;SDS011;4072;42.668;23.396;2023-06-22T12:57:36;15.30;;;10.88;;
8058;SDS011;4072;42.668;23.396;2023-06-22T13:00:04;18.58;;;12.23;;
8058;SDS011;4072;42.668;23.396;2023-06-22T13:02:35;17.05;;;10.82;;
8058;SDS011;4072;42.668;23.396;2023-06-22T13:05:04;12.43;;;10.55;;
8058;SDS011;4072;42.668;23.396;2023-06-22T13:07:35;11.32;;;10.00;;
8058;SDS011;4072;42.668;23.396;2023-06-22T13:10:04;14.80;;;11.00;;
8058;SDS011;4072;42.668;23.396;2023-06-22T13:12:36;11.98;;;8.93;;
8058;SDS011;4072;42.668;23.396;2023-06-22T13:15:04;11.10;;;10.00;;
8058;SDS011;4072;42.668;23.396;2023-06-22T13:17:35;10.65;;;9.05;;
8058;SDS011;4072;42.668;23.396;2023-06-22T13:20:03;11.82;;;9.98;;
8058;SDS011;4072;42.668;23.396;2023-06-22T13:22:34;11.85;;;10.43;;
8058;SDS011;4072;42.668;23.396;2023-06-22T13:25:09;12.27;;;10.10;;
8058;SDS011;4072;42.668;23.396;2023-06-22T13:27:39;11.82;;;9.85;;
8058;SDS011;4072;42.668;23.396;2023-06-22T13:30:08;12.57;;;10.77;;
8058;SDS011;4072;42.668;23.396;2023-06-22T13:32:40;11.32;;;10.23;;
8058;SDS011;4072;42.668;23.396;2023-06-22T13:35:09;11.48;;;10.27;;
8058;SDS011;4072;42.668;23.396;2023-06-22T13:37:38;14.70;;;10.68;;
8058;SDS011;4072;42.668;23.396;2023-06-22T13:40:10;12.15;;;10.50;;
8058;SDS011;4072;42.668;23.396;2023-06-22T13:42:38;12.95;;;10.15;;
8058;SDS011;4072;42.668;23.396;2023-06-22T13:45:07;12.52;;;9.70;;
8058;SDS011;4072;42.668;23.396;2023-06-22T13:47:36;10.77;;;9.77;;
8058;SDS011;4072;42.668;23.396;2023-06-22T13:50:05;10.45;;;9.45;;
8058;SDS011;4072;42.668;23.396;2023-06-22T13:52:34;11.85;;;10.63;;
8058;SDS011;4072;42.668;23.396;2023-06-22T13:55:03;11.95;;;10.73;;
8058;SDS011;4072;42.668;23.396;2023-06-22T13:57:33;9.55;;;8.35;;
8058;SDS011;4072;42.668;23.396;2023-06-22T14:00:01;11.00;;;9.68;;
8058;SDS011;4072;42.668;23.396;2023-06-22T14:02:31;13.05;;;10.85;;
8058;SDS011;4072;42.668;23.396;2023-06-22T14:04:59;12.85;;;10.32;;
8058;SDS011;4072;42.668;23.396;2023-06-22T14:07:29;22.08;;;13.52;;
8058;SDS011;4072;42.668;23.396;2023-06-22T14:09:58;18.40;;;14.43;;
8058;SDS011;4072;42.668;23.396;2023-06-22T14:12:26;16.10;;;12.10;;
8058;SDS011;4072;42.668;23.396;2023-06-22T14:14:56;15.00;;;12.23;;
8058;SDS011;4072;42.668;23.396;2023-06-22T14:17:24;13.53;;;11.57;;
8058;SDS011;4072;42.668;23.396;2023-06-22T14:19:53;13.60;;;12.10;;
8058;SDS011;4072;42.668;23.396;2023-06-22T14:22:21;13.10;;;11.00;;
8058;SDS011;4072;42.668;23.396;2023-06-22T14:24:50;13.47;;;11.73;;
8058;SDS011;4072;42.668;23.396;2023-06-22T14:27:18;16.30;;;12.63;;
8058;SDS011;4072;42.668;23.396;2023-06-22T14:29:46;14.77;;;12.00;;
8058;SDS011;4072;42.668;23.396;2023-06-22T14:32:16;16.03;;;13.40;;
8058;SDS011;4072;42.668;23.396;2023-06-22T14:34:44;12.97;;;11.67;;
8058;SDS011;4072;42.668;23.396;2023-06-22T14:37:12;13.63;;;12.33;;
8058;SDS011;4072;42.668;23.396;2023-06-22T14:39:41;16.37;;;12.77;;
8058;SDS011;4072;42.668;23.396;2023-06-22T14:42:09;15.50;;;13.17;;
8058;SDS011;4072;42.668;23.396;2023-06-22T14:44:37;15.83;;;14.13;;
8058;SDS011;4072;42.668;23.396;2023-06-22T14:47:05;15.43;;;13.07;;
8058;SDS011;4072;42.668;23.396;2023-06-22T14:49:36;16.23;;;13.23;;
8058;SDS011;4072;42.668;23.396;2023-06-22T14:52:05;14.02;;;11.63;;
8058;SDS011;4072;42.668;23.396;2023-06-22T14:54:34;13.07;;;11.80;;
8058;SDS011;4072;42.668;23.396;2023-06-22T14:57:03;15.90;;;14.20;;